createdAt,value
2023-05-11T00:01:12.898Z,95386.94
2023-05-11T00:03:42.494Z,95387.94
2023-05-11T00:06:10.335Z,95380.50
2023-05-11T00:08:37.899Z,95381.09
2023-05-11T00:11:09.190Z,95381.97
2023-05-11T00:13:36.841Z,95381.75
2023-05-11T00:16:05.023Z,95379.00
2023-05-11T00:18:32.733Z,95378.75
2023-05-11T00:21:01.982Z,95368.41
2023-05-11T00:23:29.640Z,95384.72
2023-05-11T00:25:57.355Z,95374.91
2023-05-11T00:28:24.961Z,95365.56
2023-05-11T00:30:57.141Z,95369.16
2023-05-11T00:33:25.166Z,95365.75
2023-05-11T00:35:53.065Z,95368.44
2023-05-11T00:38:22.167Z,95363.53
2023-05-11T00:40:49.907Z,95367.66
2023-05-11T00:43:18.202Z,95365.66
2023-05-11T00:45:47.986Z,95362.72
2023-05-11T00:48:16.079Z,95357.53
2023-05-11T00:50:44.088Z,95365.66
2023-05-11T00:53:11.891Z,95356.72
2023-05-11T00:55:41.049Z,95363.53
2023-05-11T00:58:08.839Z,95351.59
2023-05-11T01:00:36.658Z,95361.53
2023-05-11T01:03:05.957Z,95370.47
2023-05-11T01:05:42.101Z,95364.41
2023-05-11T01:08:15.721Z,95364.78
2023-05-11T01:10:50.313Z,95363.06
2023-05-11T01:13:23.077Z,95367.00
2023-05-11T01:15:52.949Z,95362.25
2023-05-11T01:18:30.074Z,95359.66
2023-05-11T01:21:03.592Z,95367.50
2023-05-11T01:24:06.116Z,95361.44
2023-05-11T01:26:55.450Z,95360.88
2023-05-11T01:29:47.586Z,95355.41
2023-05-11T01:32:20.991Z,95348.63
2023-05-11T01:34:54.447Z,95364.19
2023-05-11T01:37:24.200Z,95354.44
2023-05-11T01:39:55.284Z,95357.47
2023-05-11T01:42:31.580Z,95365.59
2023-05-11T01:45:02.021Z,95355.84
2023-05-11T01:47:32.580Z,95364.31
2023-05-11T01:50:03.933Z,95355.41
2023-05-11T01:52:33.609Z,95357.78
2023-05-11T01:55:04.835Z,95350.50
2023-05-11T01:57:33.757Z,95354.13
2023-05-11T02:00:02.247Z,95357.03
2023-05-11T02:02:33.472Z,95359.25
2023-05-11T02:05:02.791Z,95357.06
2023-05-11T02:07:33.287Z,95358.25
2023-05-11T02:10:01.720Z,95346.06
2023-05-11T02:12:31.763Z,95355.41
2023-05-11T02:15:00.846Z,95364.09
2023-05-11T02:17:30.353Z,95356.59
2023-05-11T02:20:02.373Z,95362.72
2023-05-11T02:22:33.185Z,95355.00
2023-05-11T02:25:00.804Z,95357.03
2023-05-11T02:27:29.127Z,95361.88
2023-05-11T02:29:59.168Z,95363.94
2023-05-11T02:32:29.972Z,95354.53
2023-05-11T02:35:02.686Z,95352.16
2023-05-11T02:37:34.481Z,95353.75
2023-05-11T02:40:07.389Z,95351.13
2023-05-11T02:42:39.333Z,95345.03
2023-05-11T02:45:10.192Z,95352.13
2023-05-11T02:47:43.268Z,95341.13
2023-05-11T02:50:15.210Z,95342.16
2023-05-11T02:52:47.823Z,95333.25
2023-05-11T02:55:17.880Z,95343.66
2023-05-11T02:57:46.841Z,95343.66
2023-05-11T03:00:15.184Z,95344.06
2023-05-11T03:02:43.018Z,95348.53
2023-05-11T03:05:11.053Z,95349.81
2023-05-11T03:07:40.790Z,95340.81
2023-05-11T03:10:09.956Z,95342.03
2023-05-11T03:12:40.828Z,95344.06
2023-05-11T03:15:12.016Z,95335.75
2023-05-11T03:17:42.897Z,95342.84
2023-05-11T03:20:14.812Z,95341.44
2023-05-11T03:22:44.689Z,95339.00
2023-05-11T03:25:14.003Z,95335.13
2023-05-11T03:27:43.495Z,95334.31
2023-05-11T03:30:14.930Z,95339.59
2023-05-11T03:32:46.237Z,95333.94
2023-05-11T03:35:14.407Z,95343.06
2023-05-11T03:37:43.618Z,95334.72
2023-05-11T03:40:15.879Z,95335.53
2023-05-11T03:42:55.386Z,95326.19
2023-05-11T03:45:25.772Z,95327.78
2023-05-11T03:47:55.649Z,95326.41
2023-05-11T03:50:24.120Z,95325.78
2023-05-11T03:52:52.349Z,95336.75
2023-05-11T03:55:24.494Z,95325.00
2023-05-11T03:57:52.752Z,95320.91
2023-05-11T04:00:20.681Z,95326.03
2023-05-11T04:02:48.598Z,95320.75
2023-05-11T04:05:18.488Z,95320.75
2023-05-11T04:07:47.308Z,95323.00
2023-05-11T04:10:14.912Z,95319.34
2023-05-11T04:12:43.965Z,95316.06
2023-05-11T04:15:12.237Z,95321.34
2023-05-11T04:17:40.029Z,95313.63
2023-05-11T04:20:08.865Z,95319.28
2023-05-11T04:22:36.489Z,95308.56
2023-05-11T04:25:04.450Z,95314.81
2023-05-11T04:27:34.016Z,95312.81
2023-05-11T04:30:03.072Z,95311.81
2023-05-11T04:32:30.931Z,95321.75
2023-05-11T04:34:59.267Z,95315.22
2023-05-11T04:37:29.580Z,95320.75
2023-05-11T04:39:58.281Z,95311.19
2023-05-11T04:42:26.083Z,95314.44
2023-05-11T04:44:56.193Z,95314.81
2023-05-11T04:47:25.470Z,95321.75
2023-05-11T04:49:53.134Z,95308.72
2023-05-11T04:52:21.152Z,95317.28
2023-05-11T04:54:50.391Z,95310.34
2023-05-11T04:57:18.110Z,95315.63
2023-05-11T04:59:47.554Z,95319.28
2023-05-11T05:02:15.311Z,95316.47
2023-05-11T05:04:44.405Z,95321.75
2023-05-11T05:07:12.587Z,95323.19
2023-05-11T05:09:40.671Z,95321.94
2023-05-11T05:12:09.272Z,95316.03
2023-05-11T05:14:37.026Z,95324.94
2023-05-11T05:17:06.361Z,95315.22
2023-05-11T05:19:34.701Z,95321.34
2023-05-11T05:22:04.144Z,95315.06
2023-05-11T05:24:32.579Z,95317.88
2023-05-11T05:27:00.246Z,95324.22
2023-05-11T05:29:28.040Z,95315.31
2023-05-11T05:31:55.847Z,95326.66
2023-05-11T05:34:25.434Z,95317.09
2023-05-11T05:36:53.697Z,95323.44
2023-05-11T05:39:22.783Z,95320.19
2023-05-11T05:41:51.113Z,95319.78
2023-05-11T05:44:19.074Z,95327.34
2023-05-11T05:46:47.023Z,95330.59
2023-05-11T05:49:14.910Z,95326.06
2023-05-11T05:51:43.456Z,95334.41
2023-05-11T05:54:11.374Z,95334.00
2023-05-11T05:56:40.992Z,95338.44
2023-05-11T05:59:10.720Z,95337.69
2023-05-11T06:01:44.235Z,95330.59
2023-05-11T06:04:12.318Z,95325.06
2023-05-11T06:06:40.479Z,95327.38
2023-05-11T06:09:08.799Z,95332.81
2023-05-11T06:11:36.795Z,95331.44
2023-05-11T06:14:07.564Z,95334.84
2023-05-11T06:16:35.624Z,95332.41
2023-05-11T06:19:03.399Z,95333.66
2023-05-11T06:21:31.280Z,95326.97
2023-05-11T06:23:59.916Z,95335.28
2023-05-11T06:26:30.586Z,95341.34
2023-05-11T06:28:58.364Z,95329.41
2023-05-11T06:31:27.526Z,95332.81
2023-05-11T06:33:55.427Z,95338.56
2023-05-11T06:36:26.542Z,95333.22
2023-05-11T06:38:54.287Z,95335.25
2023-05-11T06:41:22.594Z,95332.00
2023-05-11T06:43:50.780Z,95329.78
2023-05-11T06:46:30.850Z,95336.53
2023-05-11T06:48:58.752Z,95332.06
2023-05-11T06:51:26.326Z,95336.56
2023-05-11T06:53:54.092Z,95329.13
2023-05-11T06:56:22.612Z,95327.31
2023-05-11T06:58:50.340Z,95334.44
2023-05-11T07:01:18.072Z,95327.50
2023-05-11T07:03:48.810Z,95325.03
2023-05-11T07:06:16.558Z,95332.16
2023-05-11T07:08:44.136Z,95329.13
2023-05-11T07:11:13.136Z,95328.94
2023-05-11T07:13:41.127Z,95330.38
2023-05-11T07:16:08.876Z,95329.38
2023-05-11T07:18:36.503Z,95333.44
2023-05-11T07:21:05.862Z,95326.53
2023-05-11T07:23:33.501Z,95330.56
2023-05-11T07:26:03.804Z,95331.03
2023-05-11T07:28:31.396Z,95335.09
2023-05-11T07:30:59.120Z,95335.91
2023-05-11T07:33:26.727Z,95335.50
2023-05-11T07:35:54.345Z,95328.78
2023-05-11T07:38:23.347Z,95329.59
2023-05-11T07:40:51.144Z,95322.88
2023-05-11T07:43:18.768Z,95328.97
2023-05-11T07:45:46.376Z,95331.44
2023-05-11T07:48:14.016Z,95331.19
2023-05-11T07:50:42.775Z,95332.25
2023-05-11T07:53:11.081Z,95339.34
2023-05-11T07:55:40.440Z,95327.97
2023-05-11T07:58:08.227Z,95328.38
2023-05-11T08:00:35.964Z,95331.44
2023-05-11T08:03:04.174Z,95313.13
2023-05-11T08:05:33.042Z,95334.28
2023-05-11T08:08:01.793Z,95327.97
2023-05-11T08:10:29.424Z,95326.34
2023-05-11T08:12:58.592Z,95324.69
2023-05-11T08:15:26.313Z,95333.88
2023-05-11T08:17:54.418Z,95332.63
2023-05-11T08:20:22.120Z,95329.19
2023-05-11T08:22:49.978Z,95325.13
2023-05-11T08:25:17.980Z,95327.34
2023-05-11T08:27:45.913Z,95317.56
2023-05-11T08:30:16.104Z,95319.56
2023-05-11T08:35:15.564Z,95327.69
2023-05-11T08:37:43.179Z,95310.22
2023-05-11T08:40:14.580Z,95311.84
2023-05-11T08:42:47.541Z,95314.06
2023-05-11T08:45:17.008Z,95319.56
2023-05-11T08:47:46.505Z,95323.22
2023-05-11T08:50:14.428Z,95322.78
2023-05-11T08:52:42.430Z,95319.91
2023-05-11T08:55:11.003Z,95317.81
2023-05-11T08:57:39.637Z,95322.31
2023-05-11T09:00:09.229Z,95315.78
2023-05-11T09:02:38.904Z,95315.31
2023-05-11T09:05:07.652Z,95319.38
2023-05-11T09:07:40.237Z,95322.63
2023-05-11T09:10:10.444Z,95323.41
2023-05-11T09:12:39.255Z,95320.16
2023-05-11T09:15:08.409Z,95316.38
2023-05-11T09:17:36.243Z,95323.16
2023-05-11T09:20:07.695Z,95313.94
2023-05-11T09:22:41.554Z,95310.84
2023-05-11T09:25:12.736Z,95312.63
2023-05-11T09:27:44.013Z,95308.13
2023-05-11T09:30:13.779Z,95317.16
2023-05-11T09:32:49.262Z,95307.91
2023-05-11T09:35:23.112Z,95315.84
2023-05-11T09:38:05.870Z,95310.53
2023-05-11T09:40:35.170Z,95313.44
2023-05-11T09:43:03.314Z,95305.97
2023-05-11T09:45:41.650Z,95301.75
2023-05-11T09:48:24.900Z,95306.03
2023-05-11T09:51:01.104Z,95306.91
2023-05-11T09:53:36.150Z,95304.84
2023-05-11T09:56:04.366Z,95299.47
2023-05-11T09:58:46.878Z,95297.13
2023-05-11T10:01:14.903Z,95295.47
2023-05-11T10:03:50.523Z,95301.78
2023-05-11T10:06:20.383Z,95297.25
2023-05-11T10:08:48.800Z,95299.41
2023-05-11T10:11:16.759Z,95299.13
2023-05-11T10:13:45.739Z,95303.78
2023-05-11T10:16:16.240Z,95295.47
2023-05-11T10:18:45.152Z,95293.84
2023-05-11T10:21:13.395Z,95295.78
2023-05-11T10:23:43.460Z,95300.56
2023-05-11T10:26:11.637Z,95298.00
2023-05-11T10:28:39.878Z,95300.28
2023-05-11T10:31:08.149Z,95289.09
2023-05-11T10:33:36.464Z,95293.41
2023-05-11T10:36:04.437Z,95289.06
2023-05-11T10:38:32.054Z,95287.75
2023-05-11T10:41:14.779Z,95289.59
2023-05-11T10:44:00.623Z,95288.19
2023-05-11T10:46:43.341Z,95287.16
2023-05-11T10:49:31.573Z,95287.69
2023-05-11T10:52:14.728Z,95282.44
2023-05-11T10:55:02.915Z,95286.88
2023-05-11T10:57:43.623Z,95285.03
2023-05-11T11:00:48.101Z,95285.78
2023-05-11T11:03:16.323Z,95274.31
2023-05-11T11:05:45.269Z,95278.75
2023-05-11T11:08:13.586Z,95287.69
2023-05-11T11:10:43.882Z,95278.44
2023-05-11T11:13:15.544Z,95282.25
2023-05-11T11:16:14.532Z,95272.06
2023-05-11T11:18:44.204Z,95272.06
2023-05-11T11:21:15.473Z,95282.78
2023-05-11T11:23:50.043Z,95280.06
2023-05-11T11:26:21.003Z,95275.78
2023-05-11T11:29:12.110Z,95275.47
2023-05-11T11:31:40.563Z,95274.00
2023-05-11T11:34:33.735Z,95272.66
2023-05-11T11:37:05.135Z,95275.25
2023-05-11T11:39:58.343Z,95277.34
2023-05-11T11:42:37.862Z,95279.69
2023-05-11T11:45:33.392Z,95276.53
2023-05-11T11:48:14.646Z,95278.63
2023-05-11T11:50:44.009Z,95277.81
2023-05-11T11:53:13.919Z,95276.19
2023-05-11T11:55:50.037Z,95283.59
2023-05-11T11:58:54.327Z,95277.56
2023-05-11T12:01:26.172Z,95275.53
2023-05-11T12:04:16.766Z,95271.50
2023-05-11T12:06:48.011Z,95278.44
2023-05-11T12:09:19.337Z,95273.97
2023-05-11T12:11:48.256Z,95280.59
2023-05-11T12:14:16.799Z,95272.03
2023-05-11T12:17:01.188Z,95278.72
2023-05-11T12:19:29.297Z,95277.81
2023-05-11T12:21:57.134Z,95276.94
2023-05-11T12:24:25.491Z,95278.09
2023-05-11T12:26:57.572Z,95275.56
2023-05-11T12:29:26.237Z,95284.22
2023-05-11T12:31:56.265Z,95281.88
2023-05-11T12:34:24.433Z,95276.63
2023-05-11T12:37:00.178Z,95281.56
2023-05-11T12:39:31.962Z,95280.56
2023-05-11T12:42:00.069Z,95280.56
2023-05-11T12:44:28.193Z,95273.19
2023-05-11T12:46:57.392Z,95275.31
2023-05-11T12:49:27.514Z,95272.06
2023-05-11T12:52:03.287Z,95266.63
2023-05-11T12:54:34.103Z,95266.31
2023-05-11T12:57:03.955Z,95266.59
2023-05-11T12:59:37.485Z,95265.56
2023-05-11T13:02:12.458Z,95267.19
2023-05-11T13:04:41.824Z,95260.09
2023-05-11T13:07:10.100Z,95259.19
2023-05-11T13:09:38.704Z,95256.53
2023-05-11T13:12:12.140Z,95258.88
2023-05-11T13:14:40.013Z,95254.63
2023-05-11T13:17:09.417Z,95244.00
2023-05-11T13:19:37.654Z,95249.88
2023-05-11T13:22:06.510Z,95247.22
2023-05-11T13:24:34.696Z,95240.63
2023-05-11T13:27:02.762Z,95236.66
2023-05-11T13:29:30.707Z,95239.38
2023-05-11T13:32:04.989Z,95235.88
2023-05-11T13:34:43.148Z,95239.56
2023-05-11T13:37:10.807Z,95241.94
2023-05-11T13:39:38.586Z,95240.16
2023-05-11T13:42:06.768Z,95241.22
2023-05-11T13:44:34.419Z,95239.63
2023-05-11T13:47:02.139Z,95234.66
2023-05-11T13:49:30.000Z,95235.06
2023-05-11T13:51:59.991Z,95230.03
2023-05-11T13:54:27.775Z,95225.53
2023-05-11T13:56:56.023Z,95235.69
2023-05-11T13:59:23.632Z,95222.28
2023-05-11T14:01:51.677Z,95225.75
2023-05-11T14:04:20.360Z,95224.00
2023-05-11T14:06:48.420Z,95220.94
2023-05-11T14:09:17.467Z,95220.25
2023-05-11T14:11:45.207Z,95220.38
2023-05-11T14:14:13.989Z,95227.38
2023-05-11T14:16:42.016Z,95217.28
2023-05-11T14:19:10.910Z,95214.75
2023-05-11T14:21:50.725Z,95208.75
2023-05-11T14:24:34.808Z,95211.81
2023-05-11T14:27:04.060Z,95215.91
2023-05-11T14:29:43.298Z,95210.84
2023-05-11T14:32:16.613Z,95214.63
2023-05-11T14:34:50.715Z,95210.59
2023-05-11T14:37:18.355Z,95210.53
2023-05-11T14:39:47.332Z,95209.75
2023-05-11T14:42:15.138Z,95213.44
2023-05-11T14:44:42.810Z,95219.19
2023-05-11T14:47:10.506Z,95219.19
2023-05-11T14:49:38.158Z,95215.19
2023-05-11T14:52:06.060Z,95205.00
2023-05-11T14:54:33.916Z,95210.78
2023-05-11T14:57:02.944Z,95212.41
2023-05-11T14:59:31.100Z,95215.38
2023-05-11T15:01:58.794Z,95209.13
2023-05-11T15:04:27.196Z,95208.56
2023-05-11T15:06:55.101Z,95210.41
2023-05-11T15:09:24.015Z,95206.09
2023-05-11T15:11:51.800Z,95207.47
2023-05-11T15:14:20.776Z,95216.28
2023-05-11T15:16:48.463Z,95215.03
2023-05-11T15:19:16.478Z,95220.41
2023-05-11T15:21:44.082Z,95215.81
2023-05-11T15:24:11.687Z,95213.44
2023-05-11T15:26:39.394Z,95215.19
2023-05-11T15:29:06.998Z,95221.03
2023-05-11T15:31:36.100Z,95219.19
2023-05-11T15:34:03.776Z,95227.16
2023-05-11T15:36:31.468Z,95224.72
2023-05-11T15:38:59.379Z,95216.38
2023-05-11T15:41:27.295Z,95226.63
2023-05-11T15:43:54.916Z,95226.00
2023-05-11T15:46:22.968Z,95232.91
2023-05-11T15:48:52.859Z,95236.91
2023-05-11T15:51:20.777Z,95231.38
2023-05-11T15:53:48.458Z,95232.41
2023-05-11T15:56:16.088Z,95230.91
2023-05-11T15:58:43.847Z,95229.81
2023-05-11T16:01:11.484Z,95227.06
2023-05-11T16:03:39.179Z,95231.34
2023-05-11T16:06:08.800Z,95227.28
2023-05-11T16:08:36.469Z,95226.03
2023-05-11T16:11:04.062Z,95228.97
2023-05-11T16:13:31.774Z,95236.41
2023-05-11T16:16:00.835Z,95229.03
2023-05-11T16:18:28.696Z,95229.16
2023-05-11T16:20:56.391Z,95227.69
2023-05-11T16:23:25.797Z,95230.66
2023-05-11T16:25:53.550Z,95233.72
2023-05-11T16:28:21.685Z,95227.78
2023-05-11T16:30:49.445Z,95230.19
2023-05-11T16:33:17.627Z,95227.59
2023-05-11T16:35:45.298Z,95226.78
2023-05-11T16:38:17.337Z,95231.13
2023-05-11T16:40:46.335Z,95229.28
2023-05-11T16:43:13.938Z,95229.16
2023-05-11T16:45:41.573Z,95226.13
2023-05-11T16:48:09.314Z,95223.81
2023-05-11T16:50:37.053Z,95217.03
2023-05-11T16:53:04.655Z,95221.53
2023-05-11T16:55:32.313Z,95226.03
2023-05-11T16:58:01.277Z,95223.59
2023-05-11T17:00:29.027Z,95224.25
2023-05-11T17:02:57.024Z,95218.00
2023-05-11T17:05:25.126Z,95221.28
2023-05-11T17:07:52.764Z,95220.25
2023-05-11T17:10:20.828Z,95219.63
2023-05-11T17:12:48.617Z,95221.69
2023-05-11T17:15:17.941Z,95221.28
2023-05-11T17:17:45.595Z,95221.69
2023-05-11T17:20:14.624Z,95216.63
2023-05-11T17:22:42.234Z,95225.00
2023-05-11T17:25:10.671Z,95216.44
2023-05-11T17:27:38.406Z,95216.63
2023-05-11T17:30:08.517Z,95224.59
2023-05-11T17:32:37.830Z,95219.28
2023-05-11T17:35:07.370Z,95218.47
2023-05-11T17:37:35.021Z,95224.00
2023-05-11T17:40:03.638Z,95228.28
2023-05-11T17:42:31.940Z,95220.09
2023-05-11T17:44:59.536Z,95228.72
2023-05-11T17:47:27.424Z,95228.34
2023-05-11T17:49:56.440Z,95229.56
2023-05-11T17:52:24.660Z,95227.56
2023-05-11T17:54:52.325Z,95229.22
2023-05-11T17:57:20.436Z,95229.22
2023-05-11T17:59:48.210Z,95225.75
2023-05-11T18:02:17.192Z,95228.03
2023-05-11T18:04:44.961Z,95234.16
2023-05-11T18:07:14.088Z,95226.41
2023-05-11T18:09:41.720Z,95236.25
2023-05-11T18:12:11.819Z,95234.63
2023-05-11T18:14:39.454Z,95234.44
2023-05-11T18:17:07.127Z,95244.88
2023-05-11T18:19:34.731Z,95246.53
2023-05-11T18:22:02.373Z,95234.75
2023-05-11T18:24:31.324Z,95237.78
2023-05-11T18:26:58.948Z,95237.63
2023-05-11T18:29:26.948Z,95242.09
2023-05-11T18:31:54.585Z,95235.59
2023-05-11T18:34:22.710Z,95233.19
2023-05-11T18:36:50.770Z,95240.53
2023-05-11T18:39:19.302Z,95235.47
2023-05-11T18:41:48.270Z,95242.63
2023-05-11T18:44:16.313Z,95248.34
2023-05-11T18:46:43.965Z,95243.44
2023-05-11T18:49:11.735Z,95254.44
2023-05-11T18:51:39.338Z,95240.59
2023-05-11T18:54:07.255Z,95243.03
2023-05-11T18:56:34.975Z,95242.03
2023-05-11T18:59:04.187Z,95247.94
2023-05-11T19:01:46.544Z,95245.09
2023-05-11T19:04:16.329Z,95248.56
2023-05-11T19:06:44.169Z,95259.78
2023-05-11T19:09:11.728Z,95252.44
2023-05-11T19:11:39.621Z,95252.88
2023-05-11T19:14:10.310Z,95246.34
2023-05-11T19:16:37.938Z,95251.03
2023-05-11T19:19:05.736Z,95258.16
2023-05-11T19:21:35.447Z,95260.78
2023-05-11T19:24:03.590Z,95255.50
2023-05-11T19:26:31.443Z,95248.78
2023-05-11T19:28:59.004Z,95251.44
2023-05-11T19:31:31.286Z,95248.00
2023-05-11T19:33:59.335Z,95256.13
2023-05-11T19:36:27.256Z,95250.41
2023-05-11T19:38:54.888Z,95252.84
2023-05-11T19:41:22.491Z,95255.31
2023-05-11T19:43:50.118Z,95254.50
2023-05-11T19:46:17.709Z,95254.91
2023-05-11T19:48:46.699Z,95261.81
2023-05-11T19:51:14.304Z,95258.16
2023-05-11T19:53:42.762Z,95261.81
2023-05-11T19:56:10.450Z,95270.38
2023-05-11T19:58:38.071Z,95263.03
2023-05-11T20:01:05.958Z,95269.13
2023-05-11T20:03:33.732Z,95264.25
2023-05-11T20:06:02.747Z,95269.13
2023-05-11T20:08:30.365Z,95261.41
2023-05-11T20:10:57.977Z,95267.31
2023-05-11T20:13:25.684Z,95269.94
2023-05-11T20:15:53.308Z,95261.41
2023-05-11T20:18:21.094Z,95266.09
2023-05-11T20:20:48.895Z,95247.56
2023-05-11T20:23:18.015Z,95264.47
2023-05-11T20:25:46.464Z,95258.38
2023-05-11T20:28:14.103Z,95256.53
2023-05-11T20:30:41.702Z,95262.25
2023-05-11T20:35:40.286Z,95254.91
2023-05-11T20:38:07.882Z,95254.91
2023-05-11T20:40:37.495Z,95258.38
2023-05-11T20:43:05.140Z,95257.34
2023-05-11T20:45:33.069Z,95258.16
2023-05-11T20:48:00.700Z,95254.69
2023-05-11T20:50:29.293Z,95252.25
2023-05-11T20:52:56.995Z,95249.41
2023-05-11T20:55:24.732Z,95248.00
2023-05-11T20:57:53.645Z,95252.88
2023-05-11T21:00:21.644Z,95249.81
2023-05-11T21:02:49.668Z,95249.59
2023-05-11T21:05:17.567Z,95258.97
2023-05-11T21:07:45.342Z,95249.41
2023-05-11T21:10:13.388Z,95256.75
2023-05-11T21:12:41.405Z,95252.44
2023-05-11T21:15:11.018Z,95252.44
2023-05-11T21:17:38.969Z,95248.81
2023-05-11T21:20:07.786Z,95245.75
2023-05-11T21:22:35.807Z,95257.53
2023-05-11T21:25:04.565Z,95258.56
2023-05-11T21:27:32.716Z,95254.47
2023-05-11T21:30:00.589Z,95249.38
2023-05-11T21:32:29.846Z,95253.47
2023-05-11T21:34:57.524Z,95258.56
2023-05-11T21:37:25.247Z,95267.50
2023-05-11T21:39:53.119Z,95252.44
2023-05-11T21:42:20.983Z,95255.72
2023-05-11T21:44:48.728Z,95251.84
2023-05-11T21:47:16.443Z,95255.09
2023-05-11T21:49:45.366Z,95260.59
2023-05-11T21:52:12.971Z,95256.91
2023-05-11T21:54:40.716Z,95250.59
2023-05-11T21:57:08.473Z,95251.03
2023-05-11T21:59:36.166Z,95253.25
2023-05-11T22:02:03.926Z,95252.06
2023-05-11T22:04:31.867Z,95258.97
2023-05-11T22:07:01.744Z,95254.09
2023-05-11T22:09:29.990Z,95255.28
2023-05-11T22:11:58.158Z,95253.47
2023-05-11T22:14:26.168Z,95252.25
2023-05-11T22:16:53.754Z,95254.09
2023-05-11T22:19:21.334Z,95263.84
2023-05-11T22:21:49.015Z,95263.84
2023-05-11T22:24:18.491Z,95263.25
2023-05-11T22:26:46.088Z,95262.81
2023-05-11T22:29:14.239Z,95267.50
2023-05-11T22:31:43.394Z,95265.44
2023-05-11T22:34:12.426Z,95266.69
2023-05-11T22:36:40.024Z,95268.31
2023-05-11T22:39:07.613Z,95262.22
2023-05-11T22:41:36.551Z,95267.50
2023-05-11T22:44:04.192Z,95267.69
2023-05-11T22:46:31.957Z,95273.19
2023-05-11T22:48:59.586Z,95272.56
2023-05-11T22:51:27.241Z,95275.22
2023-05-11T22:53:55.168Z,95269.94
2023-05-11T22:56:22.896Z,95269.13
2023-05-11T22:58:54.881Z,95274.19
2023-05-11T23:01:22.529Z,95268.09
2023-05-11T23:03:50.175Z,95267.88
2023-05-11T23:06:17.971Z,95269.13
2023-05-11T23:08:45.583Z,95263.25
2023-05-11T23:11:13.626Z,95260.97
2023-05-11T23:13:42.818Z,95262.00
2023-05-11T23:16:12.217Z,95260.59
2023-05-11T23:18:40.012Z,95251.22
2023-05-11T23:21:08.692Z,95256.50
2023-05-11T23:23:36.349Z,95258.53
2023-05-11T23:26:03.959Z,95262.16
2023-05-11T23:28:31.718Z,95259.72
2023-05-11T23:30:59.338Z,95255.44
2023-05-11T23:33:28.454Z,95261.34
2023-05-11T23:35:56.466Z,95256.50
2023-05-11T23:38:24.439Z,95262.41
2023-05-11T23:40:52.380Z,95262.41
2023-05-11T23:43:20.696Z,95257.31
2023-05-11T23:45:48.608Z,95255.50
2023-05-11T23:48:16.591Z,95250.56
2023-05-11T23:50:45.572Z,95261.94
2023-05-11T23:53:13.508Z,95253.00
2023-05-11T23:55:41.122Z,95246.69
2023-05-11T23:58:09.712Z,95244.06
